Time;durP1;ratioP1;P1;durP2;ratioP2;P2;SDS_P1;SDS_P2;PMS_P1;PMS_P2;Temp;Humidity;BMP_temperature;BMP_pressure;BME280_temperature;BME280_humidity;BME280_pressure;Samples;Min_cycle;Max_cycle;Signal;HPM_P1;HPM_P2
2022/10/31 00:01:25;;;;;;;26.48;14.07;;;12.80;99.90;;;;;;5053612;28;20469;-41
2022/10/31 00:03:52;;;;;;;28.65;14.25;;;12.80;99.90;;;;;;5050029;28;20081;-43
2022/10/31 00:06:20;;;;;;;26.58;14.38;;;12.70;99.90;;;;;;5036451;28;20046;-47
2022/10/31 00:08:47;;;;;;;29.52;14.65;;;12.70;99.90;;;;;;5035141;28;20053;-45
2022/10/31 00:11:14;;;;;;;25.65;15.73;;;12.70;99.90;;;;;;5034237;28;20049;-46
2022/10/31 00:13:41;;;;;;;29.85;16.13;;;12.70;99.90;;;;;;5033757;28;20059;-45
2022/10/31 00:16:14;;;;;;;31.00;16.08;;;12.70;99.90;;;;;;5031772;28;20140;-44
2022/10/31 00:18:41;;;;;;;34.83;17.23;;;12.70;99.90;;;;;;5036517;28;20067;-43
2022/10/31 00:21:08;;;;;;;30.08;16.30;;;12.60;99.90;;;;;;5053357;28;20127;-47
2022/10/31 00:23:36;;;;;;;33.00;16.33;;;12.60;99.90;;;;;;5036760;28;20064;-45
2022/10/31 00:26:03;;;;;;;27.73;15.23;;;12.70;99.90;;;;;;5053913;28;20072;-47
2022/10/31 00:28:31;;;;;;;27.27;15.05;;;12.60;99.90;;;;;;5055279;28;20056;-47
2022/10/31 00:31:00;;;;;;;30.08;14.45;;;12.70;99.90;;;;;;5032954;28;20203;-44
2022/10/31 00:33:26;;;;;;;21.20;12.50;;;12.60;99.90;;;;;;5053854;28;20060;-44
2022/10/31 00:35:53;;;;;;;25.13;12.98;;;12.60;99.90;;;;;;5047627;28;20132;-43
2022/10/31 00:38:20;;;;;;;23.75;14.98;;;12.60;99.90;;;;;;5052067;28;20136;-46
2022/10/31 00:40:48;;;;;;;25.30;14.00;;;12.50;99.90;;;;;;5054124;28;20099;-42
2022/10/31 00:43:15;;;;;;;25.13;15.35;;;12.50;99.90;;;;;;5053863;28;20129;-45
2022/10/31 00:45:42;;;;;;;29.85;13.90;;;12.50;99.90;;;;;;5051094;28;20088;-44
2022/10/31 00:48:09;;;;;;;23.15;13.52;;;12.50;99.90;;;;;;5050440;28;20048;-42
2022/10/31 00:50:36;;;;;;;15.48;10.50;;;12.40;99.90;;;;;;5034961;28;20073;-44
2022/10/31 00:53:03;;;;;;;29.75;14.30;;;12.40;99.90;;;;;;5031488;28;20136;-41
2022/10/31 00:55:29;;;;;;;21.85;13.23;;;12.40;99.90;;;;;;5052655;28;20088;-44
2022/10/31 00:57:57;;;;;;;19.60;12.77;;;12.40;99.90;;;;;;5035369;28;20132;-44
2022/10/31 01:00:24;;;;;;;34.88;15.95;;;12.40;99.90;;;;;;5034947;28;20049;-45
2022/10/31 01:02:51;;;;;;;20.38;12.43;;;12.30;99.90;;;;;;5051439;28;20083;-44
2022/10/31 01:05:18;;;;;;;23.85;13.48;;;12.30;99.90;;;;;;5028382;28;20144;-44
2022/10/31 01:07:45;;;;;;;24.10;14.02;;;12.30;99.90;;;;;;5049488;28;20140;-47
2022/10/31 01:10:11;;;;;;;20.63;11.82;;;12.30;99.90;;;;;;5035617;28;20132;-43
2022/10/31 01:12:38;;;;;;;21.90;12.90;;;12.20;99.90;;;;;;5034795;28;20477;-44
2022/10/31 01:15:08;;;;;;;23.40;13.07;;;12.20;99.90;;;;;;5034817;28;20049;-46
2022/10/31 01:17:35;;;;;;;26.58;14.57;;;12.20;99.90;;;;;;5052668;28;20132;-43
2022/10/31 01:20:02;;;;;;;30.33;16.17;;;12.20;99.90;;;;;;5053873;28;20132;-46
2022/10/31 01:22:28;;;;;;;30.60;16.67;;;12.20;99.90;;;;;;5034477;28;20471;-43
2022/10/31 01:24:55;;;;;;;34.28;17.33;;;12.20;99.90;;;;;;5036591;28;20087;-44
2022/10/31 01:27:22;;;;;;;30.42;17.42;;;12.20;99.90;;;;;;5051416;28;20179;-43
2022/10/31 01:29:49;;;;;;;34.08;16.33;;;12.20;99.90;;;;;;5045571;28;20080;-45
2022/10/31 01:32:17;;;;;;;22.88;14.73;;;12.20;99.90;;;;;;5047177;28;20130;-43
2022/10/31 01:34:43;;;;;;;32.28;18.42;;;12.20;99.90;;;;;;5034162;28;20092;-44
2022/10/31 01:37:10;;;;;;;33.47;17.77;;;12.20;99.90;;;;;;5033236;28;20059;-43
2022/10/31 01:39:37;;;;;;;31.48;16.98;;;12.20;99.90;;;;;;5048084;28;20085;-46
2022/10/31 01:42:04;;;;;;;31.10;16.50;;;12.20;99.90;;;;;;5052368;28;20083;-42
2022/10/31 01:44:52;;;;;;;27.35;17.27;;;12.20;99.90;;;;;;5051420;28;20073;-44
2022/10/31 01:47:24;;;;;;;25.42;15.82;;;12.30;99.90;;;;;;5038614;28;20045;-41
2022/10/31 01:49:53;;;;;;;25.50;17.02;;;12.20;99.90;;;;;;5033278;28;20076;-45
2022/10/31 01:52:21;;;;;;;34.42;16.90;;;12.20;99.90;;;;;;5025186;28;20148;-43
2022/10/31 01:54:50;;;;;;;29.90;16.10;;;12.20;99.90;;;;;;5052310;28;20085;-44
2022/10/31 01:57:17;;;;;;;27.77;15.30;;;12.20;99.90;;;;;;5050441;28;20562;-41
2022/10/31 01:59:45;;;;;;;34.17;16.80;;;12.20;99.90;;;;;;5032274;28;20460;-45
2022/10/31 02:02:12;;;;;;;35.42;17.23;;;12.20;99.90;;;;;;5024537;28;20053;-42
2022/10/31 02:04:40;;;;;;;23.70;15.25;;;12.20;99.90;;;;;;5032734;28;20103;-44
2022/10/31 02:07:09;;;;;;;23.98;13.85;;;12.10;99.90;;;;;;5049327;28;20099;-46
2022/10/31 02:09:36;;;;;;;26.23;15.30;;;12.10;99.90;;;;;;5032799;28;20127;-44
2022/10/31 02:12:02;;;;;;;23.38;13.52;;;12.10;99.90;;;;;;5048626;28;20136;-43
2022/10/31 02:14:30;;;;;;;24.27;14.68;;;12.10;99.90;;;;;;5032608;28;20493;-44
2022/10/31 02:16:56;;;;;;;23.27;14.48;;;12.10;99.90;;;;;;5051757;28;20084;-42
2022/10/31 02:19:27;;;;;;;23.67;13.82;;;12.00;99.90;;;;;;5031462;28;20128;-43
2022/10/31 02:21:57;;;;;;;22.75;13.32;;;12.00;99.90;;;;;;5051204;28;20111;-43
2022/10/31 02:24:38;;;;;;;23.33;13.68;;;12.00;99.90;;;;;;5034864;28;20092;-42
2022/10/31 02:27:26;;;;;;;22.20;11.70;;;12.00;99.90;;;;;;5034189;28;20187;-42
2022/10/31 02:30:03;;;;;;;27.77;14.30;;;12.00;99.90;;;;;;5040817;28;20049;-42
2022/10/31 02:32:50;;;;;;;23.02;12.02;;;11.90;99.90;;;;;;5032295;28;20549;-43
2022/10/31 02:35:22;;;;;;;25.52;13.68;;;11.90;99.90;;;;;;5048149;28;20440;-44
2022/10/31 02:37:51;;;;;;;19.27;11.45;;;11.90;99.90;;;;;;5050606;28;20095;-44
2022/10/31 02:40:21;;;;;;;27.88;12.77;;;11.80;99.90;;;;;;5049757;28;20045;-45
2022/10/31 02:42:50;;;;;;;23.27;12.48;;;11.80;99.90;;;;;;5048567;28;20153;-45
2022/10/31 02:45:22;;;;;;;22.52;12.68;;;11.80;99.90;;;;;;5031103;28;20110;-44
2022/10/31 02:47:50;;;;;;;18.33;12.25;;;11.90;99.90;;;;;;5047638;28;20085;-43
2022/10/31 02:50:20;;;;;;;20.38;11.75;;;11.80;99.90;;;;;;5028614;28;20081;-43
2022/10/31 02:52:51;;;;;;;20.08;11.18;;;11.80;99.90;;;;;;5050821;28;20417;-44
2022/10/31 02:55:52;;;;;;;20.30;10.48;;;11.80;99.90;;;;;;5050343;28;20466;-45
2022/10/31 02:58:21;;;;;;;17.40;10.57;;;11.80;99.90;;;;;;5038064;28;20107;-43
2022/10/31 03:00:54;;;;;;;18.20;11.10;;;11.70;99.90;;;;;;5043858;28;20347;-44
2022/10/31 03:03:24;;;;;;;17.30;10.60;;;11.70;99.90;;;;;;5049540;28;20099;-44
2022/10/31 03:05:54;;;;;;;19.27;11.25;;;11.70;99.90;;;;;;5025874;28;20561;-44
2022/10/31 03:08:23;;;;;;;17.55;10.70;;;11.70;99.90;;;;;;5046485;28;20136;-46
2022/10/31 03:10:53;;;;;;;19.83;10.32;;;11.60;99.90;;;;;;5044722;28;20083;-43
2022/10/31 03:13:22;;;;;;;18.90;10.68;;;11.60;99.90;;;;;;5031961;28;20138;-44
2022/10/31 03:15:50;;;;;;;19.20;11.30;;;11.60;99.90;;;;;;5048023;28;20052;-43
2022/10/31 03:18:18;;;;;;;16.95;10.23;;;11.50;99.90;;;;;;5050590;28;20136;-41
2022/10/31 03:20:48;;;;;;;18.15;10.75;;;11.50;99.90;;;;;;5048706;28;20513;-45
2022/10/31 03:23:16;;;;;;;15.98;10.55;;;11.50;99.90;;;;;;5051678;28;20560;-45
2022/10/31 03:25:43;;;;;;;19.08;11.02;;;11.40;99.90;;;;;;5033493;28;20080;-46
2022/10/31 03:28:10;;;;;;;21.88;11.63;;;11.40;99.90;;;;;;5026952;28;20088;-45
2022/10/31 03:30:38;;;;;;;17.85;11.43;;;11.40;99.90;;;;;;5047641;28;20084;-46
2022/10/31 03:33:05;;;;;;;18.02;10.48;;;11.30;99.90;;;;;;5041218;28;20136;-45
2022/10/31 03:35:32;;;;;;;14.02;10.15;;;11.30;99.90;;;;;;5053366;28;20106;-42
2022/10/31 03:38:00;;;;;;;14.93;9.73;;;11.30;99.90;;;;;;5035677;28;20125;-46
2022/10/31 03:40:27;;;;;;;19.20;11.15;;;11.30;99.90;;;;;;5034895;28;20459;-44
2022/10/31 03:42:56;;;;;;;22.25;11.55;;;11.20;99.90;;;;;;5037291;28;20049;-42
2022/10/31 03:45:24;;;;;;;14.55;11.35;;;11.20;99.90;;;;;;5037062;28;20528;-46
2022/10/31 03:47:51;;;;;;;14.52;8.77;;;11.20;99.90;;;;;;5032580;28;20674;-44
2022/10/31 03:50:18;;;;;;;14.25;9.50;;;11.10;99.90;;;;;;5051698;28;20529;-41
2022/10/31 03:52:47;;;;;;;18.83;9.95;;;11.10;99.90;;;;;;5046989;28;20080;-43
2022/10/31 03:55:19;;;;;;;13.02;9.20;;;11.10;99.90;;;;;;5055628;28;20064;-47
2022/10/31 03:57:49;;;;;;;18.85;9.10;;;11.10;99.90;;;;;;5049263;28;20144;-43
2022/10/31 04:00:16;;;;;;;16.77;10.98;;;11.00;99.90;;;;;;5028678;28;20140;-43
2022/10/31 04:02:45;;;;;;;19.35;12.30;;;11.00;99.90;;;;;;5051066;28;20139;-44
2022/10/31 04:05:12;;;;;;;18.00;11.07;;;10.90;99.90;;;;;;5036197;28;20053;-43
2022/10/31 04:07:40;;;;;;;22.35;11.88;;;10.90;99.90;;;;;;5044395;28;20092;-47
2022/10/31 04:10:08;;;;;;;21.95;11.80;;;10.90;99.90;;;;;;5053361;28;20088;-44
2022/10/31 04:12:36;;;;;;;21.67;10.82;;;10.90;99.90;;;;;;5034940;28;20136;-45
2022/10/31 04:15:04;;;;;;;17.05;9.63;;;10.80;99.90;;;;;;5054725;28;20094;-46
2022/10/31 04:17:32;;;;;;;18.15;10.32;;;10.80;99.90;;;;;;5030877;28;20057;-43
2022/10/31 04:20:00;;;;;;;14.95;10.45;;;10.80;99.90;;;;;;5043101;28;20111;-44
2022/10/31 04:22:27;;;;;;;17.30;11.45;;;10.70;99.90;;;;;;5036206;28;20067;-43
2022/10/31 04:24:54;;;;;;;18.42;11.80;;;10.70;99.90;;;;;;5037000;28;20088;-42
2022/10/31 04:27:21;;;;;;;17.60;10.52;;;10.70;99.90;;;;;;5052460;28;20088;-41
2022/10/31 04:29:49;;;;;;;23.10;12.50;;;10.60;99.90;;;;;;5053775;28;20120;-42
2022/10/31 04:32:15;;;;;;;16.63;10.57;;;10.60;99.90;;;;;;5035781;28;20091;-43
2022/10/31 04:34:42;;;;;;;18.13;10.85;;;10.60;99.90;;;;;;5036020;28;20128;-46
2022/10/31 04:37:09;;;;;;;15.70;11.10;;;10.60;99.90;;;;;;5035495;28;20139;-42
2022/10/31 04:39:36;;;;;;;13.57;10.27;;;10.60;99.90;;;;;;5052478;28;20156;-44
2022/10/31 04:42:02;;;;;;;19.02;11.70;;;10.50;99.90;;;;;;5052690;28;20554;-44
2022/10/31 04:44:29;;;;;;;19.27;10.55;;;10.50;99.90;;;;;;5052645;28;20468;-46
2022/10/31 04:46:57;;;;;;;14.77;10.75;;;10.50;99.90;;;;;;5050654;28;20569;-42
2022/10/31 04:49:24;;;;;;;16.25;11.35;;;10.50;99.90;;;;;;5052039;28;20465;-43
2022/10/31 04:51:51;;;;;;;16.50;10.60;;;10.40;99.90;;;;;;5052321;28;20479;-42
2022/10/31 04:54:17;;;;;;;17.88;11.25;;;10.30;99.90;;;;;;5030231;28;20092;-42
2022/10/31 04:56:44;;;;;;;19.33;11.55;;;10.40;99.90;;;;;;5034005;28;20083;-43
2022/10/31 04:59:11;;;;;;;18.65;12.77;;;10.40;99.90;;;;;;5052102;28;20128;-43
2022/10/31 05:01:38;;;;;;;23.17;13.95;;;10.30;99.90;;;;;;5048012;28;20130;-41
2022/10/31 05:04:06;;;;;;;17.50;12.98;;;10.30;99.90;;;;;;5035806;28;20132;-43
2022/10/31 05:06:33;;;;;;;21.48;13.40;;;10.30;99.90;;;;;;5024466;28;20501;-42
2022/10/31 05:08:59;;;;;;;17.90;11.57;;;10.30;99.90;;;;;;5047511;28;20100;-45
2022/10/31 05:11:26;;;;;;;19.80;11.90;;;10.20;99.90;;;;;;5048405;28;20144;-42
2022/10/31 05:13:53;;;;;;;19.42;12.43;;;10.20;99.90;;;;;;5034060;28;20528;-42
2022/10/31 05:16:19;;;;;;;20.42;12.40;;;10.20;99.90;;;;;;5050363;28;20124;-43
2022/10/31 05:18:46;;;;;;;16.33;11.50;;;10.30;99.90;;;;;;5023579;28;20128;-41
2022/10/31 05:21:14;;;;;;;13.85;9.70;;;10.10;99.90;;;;;;5027349;28;20083;-42
2022/10/31 05:23:41;;;;;;;18.50;12.00;;;10.10;99.90;;;;;;5049016;28;20057;-43
2022/10/31 05:26:08;;;;;;;13.70;10.95;;;10.10;99.90;;;;;;5046496;28;20053;-43
2022/10/31 05:28:35;;;;;;;18.55;12.70;;;10.20;99.90;;;;;;5023729;28;20080;-43
2022/10/31 05:31:01;;;;;;;19.92;13.43;;;10.00;99.90;;;;;;5044056;28;20139;-43
2022/10/31 05:33:28;;;;;;;15.98;11.68;;;10.00;99.90;;;;;;5051132;28;20048;-42
2022/10/31 05:35:55;;;;;;;21.02;12.55;;;10.00;99.90;;;;;;5031399;28;20103;-42
2022/10/31 05:38:23;;;;;;;19.75;12.40;;;9.90;99.90;;;;;;5040347;28;20145;-43
2022/10/31 05:40:50;;;;;;;20.38;11.40;;;10.00;99.90;;;;;;5048068;28;20194;-45
2022/10/31 05:43:17;;;;;;;18.20;12.85;;;9.90;99.90;;;;;;5052479;28;20131;-42
2022/10/31 05:45:43;;;;;;;22.40;13.18;;;9.90;99.90;;;;;;5033943;28;20103;-44
2022/10/31 05:48:10;;;;;;;15.82;11.15;;;9.90;99.90;;;;;;5045727;28;20494;-46
2022/10/31 05:50:37;;;;;;;15.52;10.55;;;9.90;99.90;;;;;;5031236;28;20568;-42
2022/10/31 05:53:06;;;;;;;13.98;10.48;;;9.80;99.90;;;;;;5018803;28;20140;-41
2022/10/31 05:55:34;;;;;;;16.38;11.57;;;9.80;99.90;;;;;;5031039;28;20371;-43
2022/10/31 05:58:01;;;;;;;16.30;11.18;;;9.80;99.90;;;;;;5051555;28;20094;-44
2022/10/31 06:00:28;;;;;;;18.25;12.95;;;9.80;99.90;;;;;;5050172;28;20163;-46
2022/10/31 06:02:59;;;;;;;19.60;14.25;;;9.80;99.90;;;;;;5041665;28;20448;-43
2022/10/31 06:05:26;;;;;;;16.15;11.73;;;9.80;99.90;;;;;;5047649;28;20568;-41
2022/10/31 06:07:53;;;;;;;22.27;15.27;;;9.70;99.90;;;;;;5029058;28;20135;-43
2022/10/31 06:10:20;;;;;;;18.27;13.43;;;9.70;99.90;;;;;;5051384;28;20148;-44
2022/10/31 06:12:48;;;;;;;19.45;12.80;;;9.70;99.90;;;;;;5043843;28;20040;-44
2022/10/31 06:15:15;;;;;;;25.08;15.05;;;9.70;99.90;;;;;;5035617;28;20107;-43
2022/10/31 06:17:42;;;;;;;22.00;15.00;;;9.70;99.90;;;;;;5053197;28;20497;-43
2022/10/31 06:20:10;;;;;;;19.73;13.60;;;9.70;99.90;;;;;;5051383;28;20204;-43
2022/10/31 06:22:36;;;;;;;21.00;12.88;;;9.70;99.90;;;;;;5049512;28;20611;-43
2022/10/31 06:25:03;;;;;;;17.58;12.90;;;9.60;99.90;;;;;;5047709;28;20049;-43
2022/10/31 06:27:30;;;;;;;20.23;14.80;;;9.60;99.90;;;;;;5034439;28;20089;-42
2022/10/31 06:29:58;;;;;;;19.08;13.05;;;9.60;99.90;;;;;;5050104;28;20132;-41
2022/10/31 06:32:25;;;;;;;20.23;12.65;;;9.60;99.90;;;;;;5054056;28;20132;-43
2022/10/31 06:34:52;;;;;;;15.60;11.90;;;9.60;99.90;;;;;;5045578;28;20106;-41
2022/10/31 06:37:19;;;;;;;17.60;10.95;;;9.60;99.90;;;;;;5028897;28;20088;-41
2022/10/31 06:39:45;;;;;;;22.23;12.63;;;9.60;99.90;;;;;;5045803;28;20119;-43
2022/10/31 06:42:12;;;;;;;12.82;9.25;;;9.60;99.90;;;;;;5049201;28;20129;-45
2022/10/31 06:44:39;;;;;;;15.70;10.50;;;9.50;99.90;;;;;;5025376;28;20075;-42
2022/10/31 06:47:07;;;;;;;14.73;10.55;;;9.50;99.90;;;;;;5048737;28;20057;-43
2022/10/31 06:49:34;;;;;;;18.17;11.43;;;9.50;99.90;;;;;;5049357;28;20137;-46
2022/10/31 06:52:01;;;;;;;17.55;12.10;;;9.50;99.90;;;;;;5045316;28;20452;-43
2022/10/31 06:54:28;;;;;;;15.43;10.88;;;9.50;99.90;;;;;;5014556;28;20236;-42
2022/10/31 06:56:54;;;;;;;15.27;11.60;;;9.50;99.90;;;;;;5050878;28;20094;-42
2022/10/31 06:59:21;;;;;;;16.23;11.23;;;9.50;99.90;;;;;;5033880;28;20515;-42
2022/10/31 07:01:48;;;;;;;36.15;13.32;;;9.50;99.90;;;;;;5049833;28;20528;-41
2022/10/31 07:04:16;;;;;;;13.93;9.70;;;9.50;99.90;;;;;;5028882;28;20557;-45
2022/10/31 07:06:43;;;;;;;29.83;11.95;;;9.50;99.90;;;;;;5032634;28;20048;-42
2022/10/31 07:09:10;;;;;;;27.15;11.00;;;9.50;99.90;;;;;;5048847;28;20081;-43
2022/10/31 07:11:36;;;;;;;12.45;9.40;;;9.50;99.90;;;;;;5050733;28;20102;-45
2022/10/31 07:14:03;;;;;;;21.08;10.15;;;9.50;99.90;;;;;;5051661;28;20084;-43
2022/10/31 07:16:30;;;;;;;14.77;9.70;;;9.50;99.90;;;;;;5051806;28;20077;-44
2022/10/31 07:18:57;;;;;;;34.35;12.25;;;9.50;99.90;;;;;;5050134;28;20493;-41
2022/10/31 07:21:25;;;;;;;17.52;10.30;;;9.50;99.90;;;;;;5049159;28;20460;-42
2022/10/31 07:23:52;;;;;;;20.90;10.82;;;9.50;99.90;;;;;;5050334;28;20111;-42
2022/10/31 07:26:18;;;;;;;12.20;8.05;;;9.50;99.90;;;;;;5051481;28;20045;-45
2022/10/31 07:28:46;;;;;;;17.67;10.75;;;9.60;99.90;;;;;;5050395;28;20096;-42
2022/10/31 07:31:13;;;;;;;13.77;10.15;;;9.60;99.90;;;;;;5033946;28;20102;-44
2022/10/31 07:33:40;;;;;;;12.57;8.90;;;9.60;99.90;;;;;;5050517;28;20088;-44
2022/10/31 07:36:07;;;;;;;29.50;12.88;;;9.60;99.90;;;;;;5051286;28;20075;-42
2022/10/31 07:38:36;;;;;;;21.27;13.05;;;9.60;99.90;;;;;;5017574;28;20096;-42
2022/10/31 07:41:02;;;;;;;11.43;10.05;;;9.60;99.90;;;;;;5039612;28;20045;-42
2022/10/31 07:43:29;;;;;;;13.38;9.40;;;9.70;99.90;;;;;;5033849;28;20127;-43
2022/10/31 07:45:56;;;;;;;16.73;12.77;;;9.70;99.90;;;;;;5050133;28;20149;-41
2022/10/31 07:48:23;;;;;;;19.38;14.25;;;9.70;99.90;;;;;;5033772;28;20049;-42
2022/10/31 07:50:49;;;;;;;16.27;13.38;;;9.70;99.90;;;;;;5033361;28;20158;-42
2022/10/31 07:53:16;;;;;;;18.50;14.70;;;9.80;99.90;;;;;;5051235;28;20081;-43
2022/10/31 07:55:44;;;;;;;22.98;15.50;;;9.80;99.90;;;;;;5050924;28;20091;-43
2022/10/31 07:58:12;;;;;;;23.85;16.25;;;9.90;99.90;;;;;;5018771;28;20380;-42
2022/10/31 08:00:40;;;;;;;27.73;17.10;;;9.90;99.90;;;;;;5049102;28;20083;-43
2022/10/31 08:03:07;;;;;;;20.58;15.15;;;10.10;99.90;;;;;;5032179;28;20131;-44
2022/10/31 08:05:34;;;;;;;18.60;14.75;;;10.10;99.90;;;;;;5053025;28;20127;-43
2022/10/31 08:08:01;;;;;;;25.33;18.23;;;10.10;99.90;;;;;;5052904;28;20044;-42
2022/10/31 08:10:28;;;;;;;24.65;18.65;;;10.20;99.90;;;;;;5071288;28;20377;-42
2022/10/31 08:13:00;;;;;;;28.95;20.23;;;10.20;99.90;;;;;;5068526;28;20129;-42
2022/10/31 08:15:27;;;;;;;;;;;10.30;99.90;;;;;;5013751;28;20564;-41
2022/10/31 08:17:53;;;;;;;34.72;21.88;;;10.30;99.90;;;;;;5047526;28;19974;-40
2022/10/31 08:20:20;;;;;;;32.83;20.88;;;10.40;99.90;;;;;;5051048;28;20048;-43
2022/10/31 08:22:55;;;;;;;34.78;22.50;;;10.50;99.90;;;;;;5026705;28;20095;-42
2022/10/31 08:25:21;;;;;;;34.97;22.65;;;10.60;99.90;;;;;;5021450;28;20056;-42
2022/10/31 08:27:50;;;;;;;30.00;21.60;;;10.70;99.90;;;;;;5051601;28;20452;-43
2022/10/31 08:30:19;;;;;;;34.10;22.50;;;10.80;99.90;;;;;;5054372;28;20045;-41
2022/10/31 08:32:46;;;;;;;32.20;22.10;;;10.80;99.90;;;;;;5036649;28;20364;-43
2022/10/31 08:35:12;;;;;;;30.23;21.50;;;10.90;99.90;;;;;;5036515;28;20132;-42
2022/10/31 08:37:39;;;;;;;33.97;23.17;;;11.00;99.90;;;;;;5052427;28;20037;-42
2022/10/31 08:40:07;;;;;;;36.10;24.33;;;11.00;99.90;;;;;;5053510;28;20128;-43
2022/10/31 08:42:34;;;;;;;38.15;24.50;;;11.10;99.90;;;;;;5052619;28;20045;-41
2022/10/31 08:45:00;;;;;;;42.85;25.48;;;11.10;99.90;;;;;;5053071;28;20135;-42
2022/10/31 08:47:29;;;;;;;48.97;25.80;;;11.20;99.90;;;;;;5036595;28;20049;-42
2022/10/31 08:49:55;;;;;;;40.22;25.23;;;11.20;99.90;;;;;;5052237;28;20053;-42
2022/10/31 08:52:24;;;;;;;39.50;25.13;;;11.30;99.90;;;;;;5035482;28;20492;-41
2022/10/31 08:54:51;;;;;;;42.95;25.15;;;11.30;99.90;;;;;;5035710;28;20049;-43
2022/10/31 08:57:18;;;;;;;33.45;22.95;;;11.40;99.90;;;;;;5053861;28;20136;-42
2022/10/31 08:59:45;;;;;;;40.42;25.45;;;11.40;99.90;;;;;;5035988;28;20151;-42
2022/10/31 09:02:11;;;;;;;40.75;24.50;;;11.40;99.90;;;;;;5035047;28;20136;-43
2022/10/31 09:04:39;;;;;;;41.78;25.77;;;11.50;99.90;;;;;;5053731;28;20486;-41
2022/10/31 09:07:06;;;;;;;36.75;25.70;;;11.50;99.90;;;;;;5040715;28;20140;-44
2022/10/31 09:09:33;;;;;;;39.92;26.00;;;11.50;99.90;;;;;;5050781;28;20132;-41
2022/10/31 09:12:00;;;;;;;39.80;26.85;;;11.60;99.90;;;;;;5033176;28;20143;-41
2022/10/31 09:14:26;;;;;;;46.33;28.08;;;11.50;99.90;;;;;;5048771;28;20127;-42
2022/10/31 09:16:53;;;;;;;33.47;23.58;;;11.70;99.90;;;;;;5035701;28;20127;-42
2022/10/31 09:19:20;;;;;;;44.38;27.63;;;11.70;99.90;;;;;;5052004;28;20391;-41
2022/10/31 09:21:48;;;;;;;35.30;24.95;;;11.80;99.90;;;;;;5034603;28;20489;-41
2022/10/31 09:24:15;;;;;;;42.90;28.67;;;11.90;99.90;;;;;;5053649;28;20049;-40
2022/10/31 09:26:41;;;;;;;42.03;25.98;;;12.00;99.90;;;;;;5053422;28;20084;-41
2022/10/31 09:29:09;;;;;;;44.30;27.00;;;12.10;99.90;;;;;;5029719;28;20084;-41
2022/10/31 09:31:36;;;;;;;32.35;23.75;;;12.20;99.90;;;;;;5051185;28;20124;-41
2022/10/31 09:34:03;;;;;;;37.65;25.67;;;12.30;99.90;;;;;;5052932;28;20482;-43
2022/10/31 09:36:29;;;;;;;39.42;26.45;;;12.30;99.90;;;;;;5035190;28;20460;-42
2022/10/31 09:38:58;;;;;;;38.83;25.10;;;12.40;99.90;;;;;;5053113;28;20557;-41
2022/10/31 09:41:27;;;;;;;38.78;25.35;;;12.30;99.90;;;;;;5051723;28;20053;-42
2022/10/31 09:43:58;;;;;;;37.67;25.65;;;12.30;99.90;;;;;;5052910;28;20460;-42
2022/10/31 09:46:30;;;;;;;39.67;27.58;;;12.40;99.90;;;;;;5033974;28;20463;-44
2022/10/31 09:49:17;;;;;;;38.35;26.25;;;12.40;99.90;;;;;;5052662;28;20088;-42
2022/10/31 09:51:45;;;;;;;39.92;26.58;;;12.50;99.90;;;;;;5033195;28;20056;-42
2022/10/31 09:54:15;;;;;;;39.22;26.60;;;12.50;99.90;;;;;;5050755;28;20053;-42
2022/10/31 09:56:42;;;;;;;38.75;26.27;;;12.60;99.90;;;;;;5052097;28;20482;-41
2022/10/31 09:59:13;;;;;;;36.63;26.75;;;12.70;99.90;;;;;;5051760;28;20191;-42
2022/10/31 10:01:43;;;;;;;34.97;25.03;;;12.80;99.90;;;;;;5032919;28;20073;-43
2022/10/31 10:04:21;;;;;;;37.40;26.35;;;12.70;99.90;;;;;;5052941;28;20136;-41
2022/10/31 10:06:49;;;;;;;38.70;26.38;;;12.80;99.90;;;;;;5051010;28;20148;-42
2022/10/31 10:09:17;;;;;;;39.97;26.77;;;12.70;99.90;;;;;;5034399;28;20048;-42
2022/10/31 10:11:51;;;;;;;39.63;26.55;;;12.80;99.90;;;;;;5034652;28;20052;-41
2022/10/31 10:14:35;;;;;;;38.97;26.42;;;12.80;99.90;;;;;;5033290;28;20574;-41
2022/10/31 10:17:12;;;;;;;42.63;27.95;;;12.80;99.90;;;;;;5052417;28;20469;-42
2022/10/31 10:19:54;;;;;;;36.25;26.02;;;12.90;99.90;;;;;;5056851;28;20056;-42
2022/10/31 10:22:23;;;;;;;45.75;27.60;;;13.00;99.90;;;;;;5051619;28;20136;-41
2022/10/31 10:25:02;;;;;;;42.30;27.42;;;13.00;99.90;;;;;;5052578;28;20137;-41
2022/10/31 10:27:40;;;;;;;38.42;25.55;;;13.00;99.90;;;;;;5052177;28;20060;-42
2022/10/31 10:30:14;;;;;;;40.30;26.45;;;13.10;99.90;;;;;;5052074;28;20076;-42
2022/10/31 10:32:43;;;;;;;40.65;27.20;;;13.20;99.90;;;;;;5033751;28;20057;-41
2022/10/31 10:35:15;;;;;;;37.95;26.52;;;13.30;99.90;;;;;;5033686;28;20049;-41
2022/10/31 10:37:42;;;;;;;;;;;13.50;99.90;;;;;;5052614;28;20136;-41
2022/10/31 10:40:14;;;;;;;31.02;23.48;;;13.60;99.90;;;;;;5029226;28;19990;-43
2022/10/31 10:48:15;;;;;;;32.67;23.85;;;13.80;99.90;;;;;;5051825;28;20049;-41
2022/10/31 10:50:46;;;;;;;34.13;22.02;;;13.90;99.90;;;;;;5052028;28;20136;-42
2022/10/31 10:53:31;;;;;;;32.80;23.15;;;14.00;99.90;;;;;;5050026;28;20067;-43
2022/10/31 10:56:00;;;;;;;29.48;20.55;;;14.20;99.90;;;;;;5030918;28;20048;-41
2022/10/31 10:58:27;;;;;;;28.05;19.48;;;14.30;99.90;;;;;;5024047;28;20481;-42
2022/10/31 11:00:54;;;;;;;29.60;19.25;;;14.40;99.90;;;;;;5049193;28;20136;-43
2022/10/31 11:03:21;;;;;;;23.73;16.23;;;14.50;99.90;;;;;;5032875;28;20377;-42
2022/10/31 11:05:49;;;;;;;25.38;16.48;;;14.60;99.90;;;;;;5033816;28;20494;-42
2022/10/31 11:08:24;;;;;;;24.75;15.32;;;14.70;99.90;;;;;;5051602;28;20473;-41
2022/10/31 11:11:00;;;;;;;21.75;14.00;;;14.70;99.90;;;;;;5042095;28;20042;-42
2022/10/31 11:13:27;;;;;;;21.02;13.98;;;14.80;99.90;;;;;;5028808;28;20057;-41
2022/10/31 11:15:59;;;;;;;24.85;14.10;;;14.80;99.90;;;;;;5042265;28;20049;-42
2022/10/31 11:18:28;;;;;;;21.48;15.30;;;14.90;99.90;;;;;;5028839;28;20085;-41
2022/10/31 11:20:56;;;;;;;23.30;14.38;;;14.90;99.90;;;;;;5046594;28;20041;-41
2022/10/31 11:23:24;;;;;;;20.70;15.07;;;15.00;99.90;;;;;;5035832;28;20474;-44
2022/10/31 11:25:56;;;;;;;27.15;16.67;;;15.10;99.90;;;;;;5034238;28;20444;-43
2022/10/31 11:28:24;;;;;;;;;;;15.10;99.90;;;;;;5032152;28;20085;-42
2022/10/31 11:30:52;;;;;;;25.52;16.38;;;15.10;99.90;;;;;;5051669;28;20434;-41
2022/10/31 11:33:21;;;;;;;22.83;15.45;;;15.10;99.90;;;;;;5050303;28;20469;-41
2022/10/31 11:35:48;;;;;;;24.92;15.75;;;15.10;99.90;;;;;;5050618;28;20119;-44
2022/10/31 11:38:17;;;;;;;22.02;15.77;;;15.10;99.90;;;;;;5051036;28;20106;-43
2022/10/31 11:40:52;;;;;;;22.65;15.38;;;15.20;99.90;;;;;;5031630;28;20136;-41
2022/10/31 11:43:19;;;;;;;20.83;15.43;;;15.20;99.90;;;;;;5035216;28;20057;-43
2022/10/31 11:45:47;;;;;;;24.02;15.25;;;15.20;99.90;;;;;;5031836;28;20095;-43
2022/10/31 11:48:17;;;;;;;22.50;15.40;;;15.20;99.90;;;;;;5051260;28;20064;-43
2022/10/31 11:50:43;;;;;;;22.83;13.52;;;15.30;99.90;;;;;;5047023;28;20128;-43
2022/10/31 11:53:13;;;;;;;21.17;13.45;;;15.30;99.90;;;;;;5049031;28;20106;-42
2022/10/31 11:55:40;;;;;;;21.27;13.65;;;15.30;99.90;;;;;;5052337;28;20053;-42
2022/10/31 11:58:23;;;;;;;21.83;12.60;;;15.40;99.90;;;;;;5037582;28;20131;-42
2022/10/31 12:00:52;;;;;;;20.58;12.90;;;15.40;99.90;;;;;;5038263;28;20464;-42
2022/10/31 12:03:36;;;;;;;22.98;13.80;;;15.50;99.90;;;;;;5055822;28;20099;-42
2022/10/31 12:06:05;;;;;;;23.95;13.95;;;15.50;99.90;;;;;;5052410;28;20094;-42
2022/10/31 12:08:33;;;;;;;19.83;11.70;;;15.60;99.90;;;;;;5033364;28;20115;-43
2022/10/31 12:11:04;;;;;;;21.25;11.93;;;15.70;99.90;;;;;;5052007;28;20091;-40
2022/10/31 12:13:33;;;;;;;18.13;11.45;;;15.70;99.90;;;;;;5038087;28;20322;-42
2022/10/31 12:16:06;;;;;;;24.15;11.60;;;15.70;99.90;;;;;;5052112;28;20135;-43
2022/10/31 12:18:47;;;;;;;15.85;11.00;;;15.80;99.90;;;;;;5037370;28;20110;-44
2022/10/31 12:21:21;;;;;;;18.92;10.60;;;15.90;99.90;;;;;;5055336;28;20045;-43
2022/10/31 12:23:55;;;;;;;18.73;10.82;;;15.80;99.90;;;;;;5036541;28;20053;-43
2022/10/31 12:26:24;;;;;;;19.05;10.50;;;15.90;99.90;;;;;;5054266;28;20076;-42
2022/10/31 12:29:01;;;;;;;22.27;10.65;;;15.90;99.90;;;;;;5035872;28;20536;-41
2022/10/31 12:31:36;;;;;;;19.10;10.30;;;15.90;99.90;;;;;;5035364;28;20111;-43
2022/10/31 12:34:15;;;;;;;19.02;9.68;;;15.90;99.90;;;;;;5046855;28;20083;-42
2022/10/31 12:36:47;;;;;;;16.95;9.65;;;15.90;99.90;;;;;;5055088;28;20084;-42
2022/10/31 12:39:30;;;;;;;23.30;10.55;;;15.90;99.90;;;;;;5054122;28;20099;-42
2022/10/31 12:42:00;;;;;;;21.05;9.95;;;15.90;99.90;;;;;;5040320;28;20049;-42
2022/10/31 12:44:42;;;;;;;23.60;10.05;;;16.00;99.90;;;;;;5055104;28;20107;-41